createdAt,value
2019-05-28T00:00:10.938Z,3.60
2019-05-28T00:02:40.428Z,3.10
2019-05-28T00:05:10.484Z,3.50
2019-05-28T00:07:39.882Z,3.53
2019-05-28T00:10:09.719Z,3.60
2019-05-28T00:12:40.890Z,3.50
2019-05-28T00:15:10.426Z,3.33
2019-05-28T00:17:39.851Z,3.73
2019-05-28T00:20:09.935Z,3.50
2019-05-28T00:22:41.024Z,3.40
2019-05-28T00:25:10.676Z,3.53
2019-05-28T00:27:40.100Z,3.40
2019-05-28T00:30:19.949Z,3.50
2019-05-28T00:32:42.398Z,3.60
2019-05-28T00:35:12.380Z,3.37
2019-05-28T00:37:41.885Z,3.60
2019-05-28T00:40:12.429Z,3.80
2019-05-28T00:42:41.918Z,3.97
2019-05-28T00:45:12.749Z,3.10
2019-05-28T00:47:42.171Z,3.90
2019-05-28T00:50:12.623Z,3.73
2019-05-28T00:52:42.025Z,3.97
2019-05-28T00:55:12.247Z,4.33
2019-05-28T00:57:47.237Z,4.60
2019-05-28T01:00:16.979Z,4.97
2019-05-28T01:02:46.455Z,4.50
2019-05-28T01:05:15.927Z,4.00
2019-05-28T01:07:45.671Z,4.23
2019-05-28T01:10:15.519Z,3.87
2019-05-28T01:12:44.939Z,4.40
2019-05-28T01:15:15.211Z,3.80
2019-05-28T01:17:44.631Z,3.47
2019-05-28T01:20:14.171Z,3.80
2019-05-28T01:22:43.586Z,3.60
2019-05-28T01:25:16.640Z,3.57
2019-05-28T01:27:44.927Z,3.80
2019-05-28T01:30:14.453Z,3.70
2019-05-28T01:32:43.887Z,4.00
2019-05-28T01:35:13.534Z,3.93
2019-05-28T01:37:42.957Z,3.33
2019-05-28T01:40:13.199Z,3.83
2019-05-28T01:42:42.676Z,3.67
2019-05-28T01:45:14.211Z,4.40
2019-05-28T01:47:43.699Z,3.93
2019-05-28T01:50:13.545Z,3.67
2019-05-28T01:52:42.950Z,4.10
2019-05-28T01:55:12.614Z,3.73
2019-05-28T01:57:42.028Z,3.97
2019-05-28T02:00:12.416Z,4.20
2019-05-28T02:02:41.813Z,3.83
2019-05-28T02:05:11.639Z,3.80
2019-05-28T02:07:41.169Z,3.40
2019-05-28T02:10:11.359Z,3.90
2019-05-28T02:12:40.823Z,3.50
2019-05-28T02:15:11.496Z,3.27
2019-05-28T02:17:41.001Z,3.30
2019-05-28T02:20:11.086Z,3.30
2019-05-28T02:22:40.500Z,3.00
2019-05-28T02:25:11.686Z,3.20
2019-05-28T02:27:41.178Z,3.13
2019-05-28T02:30:11.724Z,2.83
2019-05-28T02:32:41.139Z,2.70
2019-05-28T02:35:12.228Z,2.67
2019-05-28T02:37:41.737Z,2.80
2019-05-28T02:40:11.898Z,2.30
2019-05-28T02:42:41.307Z,2.20
2019-05-28T02:45:11.723Z,2.37
2019-05-28T02:47:41.110Z,2.67
2019-05-28T02:50:11.275Z,2.37
2019-05-28T02:52:42.203Z,2.37
2019-05-28T02:55:11.957Z,2.53
2019-05-28T02:57:42.791Z,2.30
2019-05-28T03:00:17.784Z,2.53
2019-05-28T03:02:49.936Z,2.37
2019-05-28T03:05:19.400Z,2.30
2019-05-28T03:07:50.742Z,2.00
2019-05-28T03:10:59.503Z,1.80
2019-05-28T03:13:06.386Z,2.10
2019-05-28T03:15:38.833Z,1.93
2019-05-28T03:18:10.520Z,2.07
2019-05-28T03:20:42.259Z,1.87
2019-05-28T03:23:13.103Z,1.70
2019-05-28T03:25:42.510Z,1.80
2019-05-28T03:28:12.156Z,1.40
2019-05-28T03:30:41.648Z,1.60
2019-05-28T03:33:11.115Z,1.70
2019-05-28T03:35:43.265Z,1.93
2019-05-28T03:38:13.601Z,1.80
2019-05-28T03:40:45.968Z,2.10
2019-05-28T03:43:16.307Z,1.70
2019-05-28T03:45:45.986Z,1.83
2019-05-28T03:48:15.549Z,2.00
2019-05-28T03:50:45.006Z,1.43
2019-05-28T03:53:14.403Z,1.60
2019-05-28T03:55:43.813Z,1.70
2019-05-28T03:58:13.212Z,1.70
2019-05-28T04:00:42.722Z,1.70
2019-05-28T04:03:12.126Z,2.80
2019-05-28T04:05:41.543Z,1.80
2019-05-28T04:08:11.020Z,1.50
2019-05-28T04:10:40.415Z,1.40
2019-05-28T04:13:09.916Z,1.20
2019-05-28T04:15:39.399Z,1.40
2019-05-28T04:18:08.966Z,1.40
2019-05-28T04:20:38.697Z,1.20
2019-05-28T04:23:15.741Z,1.60
2019-05-28T04:25:46.376Z,1.30
2019-05-28T04:28:15.762Z,1.30
2019-05-28T04:30:45.179Z,1.17
2019-05-28T04:33:14.566Z,1.10
2019-05-28T04:35:44.080Z,1.13
2019-05-28T04:38:13.544Z,1.60
2019-05-28T04:40:42.924Z,1.50
2019-05-28T04:43:12.338Z,1.23
2019-05-28T04:45:41.909Z,1.60
2019-05-28T04:48:11.323Z,1.57
2019-05-28T04:50:40.710Z,1.23
2019-05-28T04:53:10.151Z,1.20
2019-05-28T04:55:39.517Z,1.00
2019-05-28T04:58:08.960Z,1.17
2019-05-28T05:00:38.337Z,1.53
2019-05-28T05:03:07.810Z,1.27
2019-05-28T05:05:37.304Z,1.23
2019-05-28T05:08:06.792Z,1.40
2019-05-28T05:10:36.189Z,1.30
2019-05-28T05:13:05.677Z,1.10
2019-05-28T05:15:35.076Z,1.20
2019-05-28T05:18:04.571Z,1.50
2019-05-28T05:20:34.024Z,1.60
2019-05-28T05:23:03.416Z,1.23
2019-05-28T05:25:32.812Z,1.30
2019-05-28T05:28:02.225Z,1.70
2019-05-28T05:30:31.683Z,1.10
2019-05-28T05:33:18.710Z,1.30
2019-05-28T05:35:32.408Z,1.40
2019-05-28T05:38:01.805Z,1.30
2019-05-28T05:40:31.277Z,1.20
2019-05-28T05:43:00.694Z,1.40
2019-05-28T05:45:30.097Z,1.20
2019-05-28T05:47:59.607Z,1.17
2019-05-28T05:50:29.002Z,1.30
2019-05-28T05:52:58.417Z,1.60
2019-05-28T05:55:27.807Z,1.17
2019-05-28T05:57:57.221Z,1.50
2019-05-28T06:00:26.709Z,1.10
2019-05-28T06:02:56.138Z,1.30
2019-05-28T06:05:25.607Z,1.70
2019-05-28T06:07:55.102Z,1.40
2019-05-28T06:10:24.480Z,1.37
2019-05-28T06:12:53.895Z,2.10
2019-05-28T06:15:23.301Z,1.00
2019-05-28T06:17:52.739Z,1.67
2019-05-28T06:20:22.182Z,1.33
2019-05-28T06:22:51.605Z,1.70
2019-05-28T06:25:21.132Z,1.43
2019-05-28T06:27:50.518Z,1.57
2019-05-28T06:30:20.262Z,1.23
2019-05-28T06:32:49.674Z,1.57
2019-05-28T06:35:19.184Z,1.43
2019-05-28T06:37:48.592Z,1.90
2019-05-28T06:40:18.568Z,1.83
2019-05-28T06:42:47.978Z,1.53
2019-05-28T06:45:17.742Z,1.47
2019-05-28T06:47:47.138Z,1.20
2019-05-28T06:50:16.829Z,1.50
2019-05-28T06:52:46.314Z,1.40
2019-05-28T06:55:16.472Z,1.20
2019-05-28T06:57:45.885Z,1.67
2019-05-28T07:00:16.229Z,1.70
2019-05-28T07:02:45.637Z,1.40
2019-05-28T07:05:15.424Z,1.50
2019-05-28T07:07:44.843Z,1.43
2019-05-28T07:10:14.796Z,1.63
2019-05-28T07:12:47.258Z,1.57
2019-05-28T07:15:16.963Z,1.30
2019-05-28T07:17:46.362Z,1.57
2019-05-28T07:20:16.705Z,1.60
2019-05-28T07:22:46.272Z,1.70
2019-05-28T07:25:16.047Z,1.50
2019-05-28T07:27:45.440Z,1.90
2019-05-28T07:30:15.039Z,1.70
2019-05-28T07:32:44.441Z,1.77
2019-05-28T07:35:14.256Z,1.90
2019-05-28T07:37:43.656Z,1.67
2019-05-28T07:40:28.174Z,1.70
2019-05-28T07:42:44.580Z,1.33
2019-05-28T07:45:14.536Z,2.20
2019-05-28T07:47:43.925Z,2.20
2019-05-28T07:50:13.579Z,1.73
2019-05-28T07:52:42.971Z,1.90
2019-05-28T07:55:12.549Z,1.80
2019-05-28T07:57:41.961Z,1.60
2019-05-28T08:00:11.947Z,1.47
2019-05-28T08:02:41.399Z,1.73
2019-05-28T08:05:10.972Z,1.70
2019-05-28T08:07:40.354Z,1.47
2019-05-28T08:10:10.212Z,1.60
2019-05-28T08:12:39.609Z,1.77
2019-05-28T08:15:09.766Z,1.93
2019-05-28T08:17:39.188Z,1.80
2019-05-28T08:20:08.850Z,1.60
2019-05-28T08:22:42.655Z,1.90
2019-05-28T08:25:27.285Z,1.80
2019-05-28T08:27:40.902Z,1.93
2019-05-28T08:30:10.494Z,2.70
2019-05-28T08:32:39.933Z,2.43
2019-05-28T08:35:09.882Z,2.67
2019-05-28T08:37:39.305Z,2.47
2019-05-28T08:40:08.958Z,1.90
2019-05-28T08:42:38.442Z,2.00
2019-05-28T08:45:08.772Z,2.00
2019-05-28T08:47:38.182Z,2.50
2019-05-28T08:50:08.242Z,2.27
2019-05-28T08:52:37.717Z,2.07
2019-05-28T08:55:07.760Z,2.20
2019-05-28T08:57:40.111Z,2.27
2019-05-28T09:00:11.342Z,2.40
2019-05-28T09:02:40.813Z,2.10
2019-05-28T09:05:25.264Z,1.60
2019-05-28T09:07:41.782Z,1.30
2019-05-28T09:10:11.398Z,1.70
2019-05-28T09:12:40.826Z,1.60
2019-05-28T09:15:10.488Z,1.70
2019-05-28T09:17:39.921Z,1.60
2019-05-28T09:20:09.498Z,1.87
2019-05-28T09:22:38.934Z,1.57
2019-05-28T09:25:08.983Z,1.73
2019-05-28T09:27:38.425Z,6.37
2019-05-28T09:30:10.263Z,9.30
2019-05-28T09:32:39.783Z,7.97
2019-05-28T09:35:09.933Z,9.63
2019-05-28T09:37:39.435Z,1.70
2019-05-28T09:40:10.585Z,1.73
2019-05-28T09:42:40.075Z,1.67
2019-05-28T09:45:21.960Z,1.50
2019-05-28T09:47:41.229Z,1.57
2019-05-28T09:50:29.271Z,1.67
2019-05-28T09:52:53.807Z,1.60
2019-05-28T09:55:14.213Z,1.77
2019-05-28T09:57:47.869Z,1.70
2019-05-28T10:00:19.273Z,1.60
2019-05-28T10:02:49.195Z,1.40
2019-05-28T10:05:19.116Z,1.70
2019-05-28T10:07:49.322Z,1.30
2019-05-28T10:10:19.976Z,1.40
2019-05-28T10:12:49.443Z,1.80
2019-05-28T10:15:19.591Z,1.27
2019-05-28T10:17:49.007Z,1.50
2019-05-28T10:20:20.294Z,1.20
2019-05-28T10:22:49.813Z,1.57
2019-05-28T10:25:19.548Z,1.20
2019-05-28T10:28:00.202Z,1.40
2019-05-28T10:30:21.056Z,1.40
2019-05-28T10:32:50.619Z,1.80
2019-05-28T10:35:21.885Z,1.60
2019-05-28T10:37:51.304Z,1.40
2019-05-28T10:40:21.240Z,1.83
2019-05-28T10:42:50.667Z,1.60
2019-05-28T10:45:20.810Z,1.20
2019-05-28T10:47:50.230Z,0.90
2019-05-28T10:50:20.011Z,0.80
2019-05-28T10:52:49.489Z,0.63
2019-05-28T10:55:19.013Z,0.50
2019-05-28T10:57:48.573Z,0.50
2019-05-28T11:00:18.784Z,0.80
2019-05-28T11:02:48.271Z,0.67
2019-05-28T11:05:18.110Z,0.53
2019-05-28T11:07:47.519Z,0.60
2019-05-28T11:10:25.065Z,0.60
2019-05-28T11:12:48.289Z,0.50
2019-05-28T11:15:18.614Z,0.63
2019-05-28T11:17:48.190Z,0.50
2019-05-28T11:20:18.473Z,0.40
2019-05-28T11:22:47.882Z,0.70
2019-05-28T11:25:18.008Z,0.37
2019-05-28T11:27:47.414Z,0.40
2019-05-28T11:30:17.960Z,0.30
2019-05-28T11:32:47.362Z,0.40
2019-05-28T11:35:18.593Z,0.50
2019-05-28T11:37:48.018Z,0.70
2019-05-28T11:40:18.352Z,0.73
2019-05-28T11:42:47.846Z,0.60
2019-05-28T11:45:18.679Z,0.80
2019-05-28T11:47:50.874Z,1.12
2019-05-28T11:50:19.897Z,0.70
2019-05-28T11:52:49.345Z,0.70
2019-05-28T11:55:19.377Z,0.70
2019-05-28T11:57:48.863Z,0.50
2019-05-28T12:00:19.287Z,0.40
2019-05-28T12:02:48.759Z,0.50
2019-05-28T12:05:18.809Z,0.60
2019-05-28T12:07:51.716Z,0.80
2019-05-28T12:10:20.235Z,0.57
2019-05-28T12:12:49.748Z,0.80
2019-05-28T12:15:21.452Z,0.80
2019-05-28T12:17:51.060Z,0.68
2019-05-28T12:20:21.591Z,0.55
2019-05-28T12:23:06.945Z,0.60
2019-05-28T12:25:23.841Z,0.60
2019-05-28T12:27:53.276Z,0.80
2019-05-28T12:30:23.401Z,0.80
2019-05-28T12:32:52.875Z,0.80
2019-05-28T12:35:29.210Z,0.80
2019-05-28T12:37:53.995Z,0.90
2019-05-28T12:40:23.849Z,0.80
2019-05-28T12:42:53.245Z,0.60
2019-05-28T12:45:34.998Z,0.73
2019-05-28T12:48:09.540Z,0.70
2019-05-28T12:50:25.462Z,0.60
2019-05-28T12:52:54.876Z,0.50
2019-05-28T12:55:24.453Z,0.67
2019-05-28T12:57:53.907Z,0.50
2019-05-28T13:00:24.493Z,0.50
2019-05-28T13:02:53.896Z,0.50
2019-05-28T13:05:26.258Z,0.50
2019-05-28T13:08:08.179Z,0.60
2019-05-28T13:10:26.804Z,0.70
2019-05-28T13:12:56.270Z,0.40
2019-05-28T13:15:25.709Z,0.63
2019-05-28T13:17:55.124Z,1.00
2019-05-28T13:20:24.551Z,0.80
2019-05-28T13:22:54.367Z,0.70
2019-05-28T13:25:26.539Z,0.77
2019-05-28T13:27:55.943Z,1.20
2019-05-28T13:30:25.607Z,1.00
2019-05-28T13:32:55.040Z,0.73
2019-05-28T13:35:24.673Z,0.70
2019-05-28T13:37:54.050Z,0.80
2019-05-28T13:40:23.668Z,0.90
2019-05-28T13:42:53.237Z,0.80
2019-05-28T13:45:22.994Z,0.70
2019-05-28T13:47:52.458Z,1.00
2019-05-28T13:50:21.958Z,1.23
2019-05-28T13:52:51.374Z,1.00
2019-05-28T13:55:21.137Z,0.70
2019-05-28T13:57:50.534Z,0.60
2019-05-28T14:00:21.185Z,0.70
2019-05-28T14:02:51.414Z,0.80
2019-05-28T14:05:21.071Z,0.77
2019-05-28T14:07:50.459Z,0.67
2019-05-28T14:10:19.950Z,0.70
2019-05-28T14:12:49.341Z,0.60
2019-05-28T14:15:20.283Z,0.70
2019-05-28T14:17:49.739Z,0.60
2019-05-28T14:20:21.033Z,0.60
2019-05-28T14:22:50.523Z,0.57
2019-05-28T14:25:20.286Z,0.40
2019-05-28T14:27:49.752Z,0.80
2019-05-28T14:30:20.817Z,0.70
2019-05-28T14:32:50.219Z,0.67
2019-05-28T14:35:19.772Z,0.83
2019-05-28T14:37:49.171Z,0.63
2019-05-28T14:40:24.001Z,0.60
2019-05-28T14:42:50.815Z,0.83
2019-05-28T14:45:20.784Z,0.97
2019-05-28T14:47:50.192Z,0.67
2019-05-28T14:50:19.859Z,0.57
2019-05-28T14:52:49.260Z,0.80
2019-05-28T14:55:18.916Z,0.70
2019-05-28T14:57:48.310Z,0.77
2019-05-28T15:00:19.192Z,0.60
2019-05-28T15:02:48.593Z,0.67
2019-05-28T15:05:18.235Z,0.70
2019-05-28T15:07:47.647Z,0.80
2019-05-28T15:10:18.087Z,1.00
2019-05-28T15:12:47.599Z,1.00
2019-05-28T15:15:34.434Z,0.90
2019-05-28T15:17:49.901Z,0.80
2019-05-28T15:20:20.379Z,0.90
2019-05-28T15:22:49.784Z,0.90
2019-05-28T15:25:19.528Z,1.07
2019-05-28T15:27:48.943Z,0.90
2019-05-28T15:30:18.781Z,0.70
2019-05-28T15:32:48.202Z,0.60
2019-05-28T15:35:17.947Z,0.60
2019-05-28T15:37:47.472Z,0.60
2019-05-28T15:40:17.394Z,0.50
2019-05-28T15:42:46.797Z,0.60
2019-05-28T15:45:16.353Z,0.73
2019-05-28T15:47:46.142Z,0.80
2019-05-28T15:50:17.085Z,0.63
2019-05-28T15:52:46.502Z,1.00
2019-05-28T15:55:15.972Z,0.70
2019-05-28T15:57:45.392Z,0.70
2019-05-28T16:00:20.549Z,0.70
2019-05-28T16:02:49.940Z,0.40
2019-05-28T16:05:19.468Z,0.80
2019-05-28T16:07:48.914Z,0.60
2019-05-28T16:10:18.644Z,0.40
2019-05-28T16:12:48.128Z,0.40
2019-05-28T16:15:18.970Z,0.50
2019-05-28T16:17:48.432Z,0.50
2019-05-28T16:20:18.380Z,0.50
2019-05-28T16:22:50.538Z,0.40
2019-05-28T16:25:20.864Z,0.40
2019-05-28T16:27:50.282Z,0.50
2019-05-28T16:30:21.122Z,0.50
2019-05-28T16:32:50.571Z,0.40
2019-05-28T16:35:20.773Z,0.50
2019-05-28T16:37:50.258Z,0.40
2019-05-28T16:40:19.927Z,0.30
2019-05-28T16:42:49.424Z,0.30
2019-05-28T16:45:19.348Z,0.40
2019-05-28T16:47:48.780Z,0.30
2019-05-28T16:50:18.621Z,0.40
2019-05-28T16:52:48.047Z,0.33
2019-05-28T16:55:17.883Z,0.30
2019-05-28T16:57:47.299Z,0.60
2019-05-28T17:00:17.053Z,0.40
2019-05-28T17:02:46.582Z,0.40
2019-05-28T17:05:16.243Z,0.40
2019-05-28T17:07:45.643Z,0.40
2019-05-28T17:10:31.786Z,0.50
2019-05-28T17:12:46.563Z,0.47
2019-05-28T17:15:18.743Z,0.50
2019-05-28T17:17:48.159Z,0.40
2019-05-28T17:20:17.997Z,0.60
2019-05-28T17:22:47.423Z,0.50
2019-05-28T17:25:18.052Z,0.50
2019-05-28T17:27:47.460Z,0.63
2019-05-28T17:30:23.799Z,0.60
2019-05-28T17:32:49.685Z,0.43
2019-05-28T17:35:19.110Z,0.50
2019-05-28T17:37:48.521Z,0.50
2019-05-28T17:40:21.805Z,0.60
2019-05-28T17:42:49.117Z,0.40
2019-05-28T17:45:19.091Z,0.40
2019-05-28T17:47:48.508Z,0.50
2019-05-28T17:50:18.217Z,0.50
2019-05-28T17:52:51.692Z,0.60
2019-05-28T17:55:21.698Z,0.60
2019-05-28T17:57:51.358Z,0.40
2019-05-28T18:00:20.793Z,0.40
2019-05-28T18:02:50.181Z,0.40
2019-05-28T18:05:19.632Z,0.40
2019-05-28T18:07:49.038Z,0.30
2019-05-28T18:10:19.087Z,0.47
2019-05-28T18:12:51.505Z,0.60
2019-05-28T18:15:20.918Z,0.53
2019-05-28T18:17:50.346Z,0.50
2019-05-28T18:20:19.749Z,0.60
2019-05-28T18:22:49.155Z,0.57
2019-05-28T18:25:20.534Z,0.77
2019-05-28T18:27:49.683Z,0.60
2019-05-28T18:30:19.651Z,0.60
2019-05-28T18:32:49.054Z,0.60
2019-05-28T18:35:18.472Z,0.60
2019-05-28T18:37:47.872Z,0.60
2019-05-28T18:40:17.727Z,0.60
2019-05-28T18:42:47.122Z,0.70
2019-05-28T18:45:17.062Z,0.77
2019-05-28T18:47:46.644Z,0.60
2019-05-28T18:50:16.360Z,0.80
2019-05-28T18:52:45.989Z,0.60
2019-05-28T18:55:15.352Z,0.50
2019-05-28T18:57:50.710Z,0.60
2019-05-28T19:00:17.734Z,0.70
2019-05-28T19:02:47.128Z,0.60
2019-05-28T19:05:17.681Z,0.60
2019-05-28T19:07:47.078Z,0.57
2019-05-28T19:10:16.586Z,0.60
2019-05-28T19:12:45.996Z,0.77
2019-05-28T19:15:15.647Z,0.53
2019-05-28T19:17:45.061Z,0.70
2019-05-28T19:20:14.925Z,0.60
2019-05-28T19:22:44.328Z,0.70
2019-05-28T19:25:14.784Z,0.50
2019-05-28T19:27:44.197Z,0.70
2019-05-28T19:30:14.251Z,0.60
2019-05-28T19:32:44.073Z,0.50
2019-05-28T19:35:14.031Z,0.50
2019-05-28T19:37:43.797Z,0.50
2019-05-28T19:40:14.983Z,0.70
2019-05-28T19:42:44.390Z,0.60
2019-05-28T19:45:13.943Z,0.60
2019-05-28T19:47:43.333Z,0.83
2019-05-28T19:50:12.747Z,0.60
2019-05-28T19:52:42.267Z,0.67
2019-05-28T19:55:12.072Z,1.13
2019-05-28T19:57:41.457Z,0.70
2019-05-28T20:00:11.206Z,0.70
2019-05-28T20:02:40.602Z,0.70
2019-05-28T20:05:10.669Z,0.80
2019-05-28T20:07:40.075Z,0.60
2019-05-28T20:10:10.243Z,0.60
2019-05-28T20:12:39.733Z,0.50
2019-05-28T20:15:11.537Z,0.80
2019-05-28T20:17:40.918Z,0.60
2019-05-28T20:20:12.081Z,0.70
2019-05-28T20:22:41.549Z,0.97
2019-05-28T20:25:11.753Z,0.80
2019-05-28T20:27:41.275Z,0.80
2019-05-28T20:30:11.705Z,0.83
2019-05-28T20:32:41.116Z,0.80
2019-05-28T20:35:11.920Z,0.70
2019-05-28T20:37:41.418Z,1.00
2019-05-28T20:40:12.768Z,0.80
2019-05-28T20:42:45.401Z,1.57
2019-05-28T20:45:14.196Z,1.40
2019-05-28T20:47:43.626Z,1.80
2019-05-28T20:50:13.508Z,2.07
2019-05-28T20:52:43.014Z,1.80
2019-05-28T20:55:14.024Z,1.30
2019-05-28T20:57:43.515Z,1.60
2019-05-28T21:00:13.949Z,1.27
2019-05-28T21:02:43.392Z,2.20
2019-05-28T21:05:13.051Z,2.60
2019-05-28T21:07:42.442Z,2.50
2019-05-28T21:10:12.508Z,2.10
2019-05-28T21:12:44.315Z,1.87
2019-05-28T21:15:15.863Z,2.03
2019-05-28T21:17:44.560Z,2.10
2019-05-28T21:20:14.402Z,2.00
2019-05-28T21:22:43.836Z,1.90
2019-05-28T21:25:14.182Z,1.80
2019-05-28T21:27:43.590Z,1.70
2019-05-28T21:30:13.524Z,1.53
2019-05-28T21:32:42.960Z,1.40
2019-05-28T21:35:12.787Z,1.37
2019-05-28T21:37:42.265Z,1.57
2019-05-28T21:40:12.094Z,1.30
2019-05-28T21:42:41.568Z,1.40
2019-05-28T21:45:12.697Z,1.27
2019-05-28T21:47:42.475Z,1.20
2019-05-28T21:50:13.758Z,1.20
2019-05-28T21:52:43.176Z,1.20
2019-05-28T21:55:13.617Z,1.37
2019-05-28T21:57:43.032Z,1.43
2019-05-28T22:00:29.143Z,1.10
2019-05-28T22:02:58.633Z,1.13
2019-05-28T22:05:28.081Z,1.30
2019-05-28T22:07:57.614Z,1.40
2019-05-28T22:10:27.010Z,1.40
2019-05-28T22:12:57.669Z,1.40
2019-05-28T22:15:27.307Z,1.57
2019-05-28T22:17:56.719Z,1.30
2019-05-28T22:20:26.119Z,1.57
2019-05-28T22:22:56.302Z,1.60
2019-05-28T22:25:25.803Z,1.63
2019-05-28T22:27:56.459Z,1.73
2019-05-28T22:30:26.339Z,1.80
2019-05-28T22:32:55.856Z,1.67
2019-05-28T22:35:25.281Z,1.60
2019-05-28T22:37:54.681Z,1.87
2019-05-28T22:40:24.209Z,5.30
2019-05-28T22:42:53.626Z,2.80
2019-05-28T22:45:23.118Z,2.00
2019-05-28T22:47:52.540Z,1.50
2019-05-28T22:50:23.374Z,1.70
2019-05-28T22:52:52.965Z,2.00
2019-05-28T22:55:22.359Z,1.87
2019-05-28T22:57:51.777Z,1.93
2019-05-28T23:00:21.400Z,1.80
2019-05-28T23:02:50.904Z,1.87
2019-05-28T23:05:20.304Z,1.70
2019-05-28T23:07:49.721Z,1.83
2019-05-28T23:10:19.608Z,2.20
2019-05-28T23:12:49.150Z,1.80
2019-05-28T23:15:18.787Z,2.40
2019-05-28T23:17:48.775Z,1.70
2019-05-28T23:20:18.306Z,2.20
2019-05-28T23:22:47.730Z,2.80
2019-05-28T23:25:18.166Z,2.80
2019-05-28T23:27:47.583Z,2.80
2019-05-28T23:30:24.870Z,2.03
2019-05-28T23:32:48.936Z,2.00
2019-05-28T23:35:18.396Z,2.00
2019-05-28T23:37:47.854Z,1.90
2019-05-28T23:40:17.545Z,2.30
2019-05-28T23:42:46.969Z,2.20
2019-05-28T23:45:16.532Z,1.87
2019-05-28T23:47:45.952Z,1.93
2019-05-28T23:50:18.213Z,1.83
2019-05-28T23:52:47.418Z,2.20
2019-05-28T23:55:37.627Z,2.20
2019-05-28T23:58:07.700Z,1.80
